Time;durP1;ratioP1;P1;durP2;ratioP2;P2;SDS_P1;SDS_P2;PMS_P1;PMS_P2;Temp;Humidity;BMP_temperature;BMP_pressure;BME280_temperature;BME280_humidity;BME280_pressure;Samples;Min_cycle;Max_cycle;Signal;HPM_P1;HPM_P2
2023/10/13 00:01:06;;;;;;;13.65;6.90;;;18.30;99.90;;;17.74;100.00;100880.53;4152251;28;20033;-76
2023/10/13 00:03:18;;;;;;;14.55;7.30;;;18.30;99.90;;;17.72;100.00;100885.25;4134722;28;20026;-76
2023/10/13 00:05:19;;;;;;;20.15;7.70;;;18.30;99.90;;;17.72;100.00;100885.25;4152226;28;20030;-76
2023/10/13 00:07:20;;;;;;;16.05;6.55;;;18.30;99.90;;;17.73;100.00;100886.91;4134954;28;20030;-76
2023/10/13 00:09:25;;;;;;;14.00;6.35;;;18.30;99.90;;;17.70;100.00;100880.13;4152069;28;20038;-76
2023/10/13 00:11:26;;;;;;;12.68;6.68;;;18.30;99.90;;;17.71;100.00;100863.09;4151898;28;20137;-76
2023/10/13 00:13:31;;;;;;;16.27;6.72;;;18.30;99.90;;;17.70;100.00;100856.09;4155850;28;20057;-76
2023/10/13 00:15:38;;;;;;;14.15;6.28;;;18.30;99.90;;;17.71;100.00;100859.59;4151502;28;20018;-76
2023/10/13 00:17:39;;;;;;;16.27;6.65;;;18.20;99.90;;;17.72;100.00;100855.88;4151622;28;20420;-77
2023/10/13 00:19:52;;;;;;;17.73;6.82;;;18.30;99.90;;;17.69;100.00;100852.59;4165292;28;20026;-76
2023/10/13 00:21:55;;;;;;;17.88;7.38;;;18.30;99.90;;;17.66;100.00;100850.34;4152184;28;20128;-77
2023/10/13 00:23:57;;;;;;;16.08;7.38;;;18.20;99.90;;;17.61;100.00;100842.13;4151961;28;20392;-76
2023/10/13 00:26:02;;;;;;;14.70;6.28;;;18.20;99.90;;;17.60;100.00;100839.63;4134599;28;20037;-76
2023/10/13 00:28:03;;;;;;;14.50;6.38;;;18.20;99.90;;;17.57;100.00;100842.69;4152442;28;20030;-76
2023/10/13 00:30:22;;;;;;;15.50;6.85;;;18.10;99.90;;;17.55;100.00;100842.91;4134727;28;20053;-76
2023/10/13 00:32:27;;;;;;;14.57;7.10;;;18.10;99.90;;;17.48;100.00;100842.03;4152693;28;20037;-76
2023/10/13 00:34:37;;;;;;;15.70;7.75;;;18.10;99.90;;;17.44;100.00;100838.09;4152263;28;20034;-76
2023/10/13 00:37:12;;;;;;;12.07;6.00;;;18.00;99.90;;;17.36;100.00;100832.94;4139001;28;20070;-76
2023/10/13 00:39:08;;;;;;;9.27;5.72;;;18.00;99.90;;;17.26;100.00;100827.16;4140865;28;20040;-77
2023/10/13 00:41:17;;;;;;;12.15;6.38;;;17.90;99.90;;;17.22;100.00;100831.22;4143405;28;20017;-76
2023/10/13 00:45:23;;;;;;;10.13;5.85;;;17.70;99.90;;;17.06;100.00;100816.38;4137609;28;20031;-76
2023/10/13 00:49:39;;;;;;;14.27;7.15;;;17.60;99.90;;;17.02;100.00;100816.97;4155061;28;20034;-77
2023/10/13 00:51:46;;;;;;;11.18;6.45;;;17.60;99.90;;;17.02;100.00;100801.78;4137695;28;20532;-76
2023/10/13 00:53:48;;;;;;;15.57;6.85;;;17.60;99.90;;;17.09;100.00;100799.16;4138029;28;20121;-76
2023/10/13 00:55:49;;;;;;;9.93;5.80;;;17.70;99.90;;;17.13;100.00;100800.41;4154931;28;20034;-76
2023/10/13 00:57:54;;;;;;;13.68;6.85;;;17.70;99.90;;;17.16;100.00;100794.69;4153454;28;20025;-77
2023/10/13 01:00:12;;;;;;;11.07;6.35;;;17.70;99.90;;;17.14;100.00;100786.88;4162251;28;20064;-77
2023/10/13 01:04:32;;;;;;;13.32;6.72;;;17.80;99.90;;;17.23;100.00;100776.91;4154636;28;20045;-76
2023/10/13 01:06:33;;;;;;;12.40;6.53;;;17.80;99.90;;;17.23;100.00;100774.22;4154533;28;20030;-77
2023/10/13 01:08:37;;;;;;;13.35;5.80;;;17.80;99.90;;;17.20;100.00;100768.47;4154406;28;20034;-76
2023/10/13 01:10:41;;;;;;;12.57;6.82;;;17.70;99.90;;;17.12;100.00;100762.28;4162451;28;20028;-76
2023/10/13 01:12:43;;;;;;;10.55;6.45;;;17.70;99.90;;;17.04;100.00;100753.63;4158462;28;20128;-76
2023/10/13 01:14:44;;;;;;;12.25;6.70;;;17.60;99.90;;;17.00;100.00;100757.69;4168504;28;20034;-76
2023/10/13 01:16:46;;;;;;;10.95;6.15;;;17.60;99.90;;;16.90;100.00;100741.25;4153431;28;20026;-77
2023/10/13 01:18:47;;;;;;;7.60;5.32;;;17.50;99.90;;;16.83;100.00;100730.56;4170678;28;20025;-76
2023/10/13 01:20:52;;;;;;;15.70;6.82;;;17.50;99.90;;;16.81;100.00;100739.78;4167874;28;20030;-76
2023/10/13 01:22:56;;;;;;;9.52;6.30;;;17.40;99.90;;;16.74;100.00;100737.06;4137152;28;20088;-76
2023/10/13 01:25:05;;;;;;;15.88;7.32;;;17.40;99.90;;;16.67;100.00;100727.38;4153266;28;20088;-76
2023/10/13 01:27:17;;;;;;;13.10;6.53;;;17.30;99.90;;;16.65;100.00;100735.56;4168104;28;20501;-76
2023/10/13 01:29:19;;;;;;;16.98;6.97;;;17.30;99.90;;;16.63;100.00;100734.13;4139296;28;20034;-76
2023/10/13 01:31:37;;;;;;;13.90;6.70;;;17.20;99.90;;;16.57;100.00;100731.25;4162382;28;20053;-77
2023/10/13 01:33:38;;;;;;;13.93;7.38;;;17.20;99.90;;;16.48;100.00;100716.41;4154149;28;20101;-76
2023/10/13 01:35:47;;;;;;;15.38;6.43;;;17.10;99.90;;;16.44;100.00;100715.13;4136720;28;20513;-77
2023/10/13 01:37:47;;;;;;;13.35;6.40;;;17.10;99.90;;;16.44;100.00;100715.13;4153940;28;20064;-76
2023/10/13 01:39:49;;;;;;;18.40;6.95;;;17.10;99.90;;;16.40;100.00;100710.38;4154834;28;20030;-77
2023/10/13 01:41:56;;;;;;;13.02;7.05;;;17.00;99.90;;;16.37;100.00;100708.94;4141160;28;20029;-76
2023/10/13 01:43:57;;;;;;;10.45;6.57;;;17.00;99.90;;;16.35;100.00;100713.63;4153940;28;20026;-76
2023/10/13 01:45:58;;;;;;;12.02;6.70;;;17.00;99.90;;;16.31;100.00;100717.69;4153767;28;20026;-76
2023/10/13 01:47:58;;;;;;;10.88;6.80;;;16.90;99.90;;;16.30;100.00;100710.72;4136644;28;20113;-76
2023/10/13 01:50:13;;;;;;;15.25;9.10;;;16.90;99.90;;;16.23;100.00;100691.22;4156032;28;20037;-76
2023/10/13 01:52:18;;;;;;;14.48;6.80;;;16.90;99.90;;;16.21;100.00;100687.94;4153941;28;20034;-76
2023/10/13 01:54:21;;;;;;;15.32;7.93;;;16.90;99.90;;;16.20;100.00;100691.59;4153659;28;20109;-76
2023/10/13 01:56:29;;;;;;;13.20;6.63;;;16.80;99.90;;;16.17;100.00;100689.34;4153937;28;20085;-76
2023/10/13 01:58:30;;;;;;;14.48;7.68;;;16.80;99.90;;;16.14;100.00;100673.75;4153676;28;20022;-76
2023/10/13 02:00:31;;;;;;;11.88;6.70;;;16.80;99.90;;;16.14;100.00;100680.91;4154759;28;20366;-77
2023/10/13 02:02:32;;;;;;;12.75;7.97;;;16.80;99.90;;;16.10;100.00;100669.81;4136490;28;20034;-76
2023/10/13 02:04:33;;;;;;;15.25;7.55;;;16.80;99.90;;;16.09;100.00;100670.84;4153927;28;20033;-77
2023/10/13 02:06:38;;;;;;;16.02;7.32;;;16.70;99.90;;;16.07;100.00;100659.56;4153672;28;20034;-76
2023/10/13 02:08:43;;;;;;;15.05;8.27;;;16.70;99.90;;;16.02;100.00;100665.47;4136541;28;20030;-77
2023/10/13 02:10:45;;;;;;;17.95;8.63;;;16.70;99.90;;;16.03;100.00;100653.84;4161182;28;20032;-76
2023/10/13 02:12:46;;;;;;;16.15;7.35;;;16.60;99.90;;;16.03;100.00;100661.81;4152253;28;20504;-76
2023/10/13 02:14:47;;;;;;;15.80;8.20;;;16.60;99.90;;;16.00;100.00;100648.91;4153949;28;20029;-76
2023/10/13 02:16:50;;;;;;;15.93;7.60;;;16.60;99.90;;;16.03;100.00;100653.00;4136161;28;20026;-76
2023/10/13 02:18:51;;;;;;;14.13;7.97;;;16.60;99.90;;;16.01;100.00;100647.03;4158210;28;20026;-76
2023/10/13 02:20:54;;;;;;;13.68;7.85;;;16.60;99.90;;;16.03;100.00;100645.03;4148259;28;20030;-76
2023/10/13 02:22:56;;;;;;;16.27;8.63;;;16.60;99.90;;;15.99;100.00;100638.44;4135850;28;20056;-76
2023/10/13 02:25:01;;;;;;;20.05;8.50;;;16.60;99.90;;;15.99;100.00;100633.09;4152296;28;20045;-76
2023/10/13 02:27:12;;;;;;;16.83;7.78;;;16.60;99.90;;;16.00;100.00;100634.75;4142830;28;20073;-77
2023/10/13 02:29:14;;;;;;;13.80;8.70;;;16.60;99.90;;;16.04;100.00;100646.66;4151923;28;20089;-76
2023/10/13 02:31:14;;;;;;;13.60;8.40;;;16.60;99.90;;;16.02;100.00;100638.88;4160606;28;20054;-77
2023/10/13 02:33:29;;;;;;;16.05;7.85;;;16.60;99.90;;;16.02;100.00;100630.06;4153271;28;20054;-76
2023/10/13 02:35:30;;;;;;;14.30;7.72;;;16.60;99.90;;;16.00;100.00;100632.09;4153237;28;20033;-77
2023/10/13 02:37:31;;;;;;;11.90;7.28;;;16.60;99.90;;;15.96;100.00;100626.34;4153092;28;20508;-76
2023/10/13 02:39:36;;;;;;;15.55;8.88;;;16.60;99.90;;;15.95;100.00;100630.00;4135697;28;20033;-76
2023/10/13 02:41:39;;;;;;;;;;;16.60;99.90;;;15.90;100.00;100620.97;4158765;28;20511;-76
2023/10/13 02:43:43;;;;;;;11.73;7.73;;;16.60;99.90;;;15.92;100.00;100616.25;4153140;28;19909;-76
2023/10/13 02:45:59;;;;;;;13.15;8.48;;;16.60;99.90;;;15.92;100.00;100613.59;4153068;28;20049;-76
2023/10/13 02:48:12;;;;;;;15.70;9.27;;;16.60;99.90;;;15.93;100.00;100610.75;4136622;28;20045;-76
2023/10/13 02:50:13;;;;;;;15.25;8.90;;;16.60;99.90;;;15.94;100.00;100607.09;4155886;28;20017;-76
2023/10/13 02:52:14;;;;;;;16.00;8.60;;;16.60;99.90;;;15.95;100.00;100608.72;4152926;28;20037;-76
2023/10/13 02:54:18;;;;;;;14.07;8.55;;;16.60;99.90;;;15.94;100.00;100601.78;4152795;28;20025;-76
2023/10/13 02:56:22;;;;;;;13.48;7.80;;;16.60;99.90;;;15.93;100.00;100593.97;4152930;28;20029;-77
2023/10/13 02:58:37;;;;;;;10.68;7.78;;;16.60;99.90;;;15.93;100.00;100593.97;4135099;28;20038;-76
2023/10/13 03:00:40;;;;;;;13.85;9.07;;;16.60;99.90;;;15.93;100.00;100599.28;4143857;28;20021;-77
2023/10/13 03:02:50;;;;;;;14.05;9.00;;;16.60;99.90;;;15.99;100.00;100583.38;4151227;28;20509;-77
2023/10/13 03:05:00;;;;;;;13.45;8.30;;;16.60;99.90;;;16.05;100.00;100576.47;4152880;28;20030;-76
2023/10/13 03:07:02;;;;;;;13.75;8.98;;;16.70;99.90;;;16.15;100.00;100568.13;4135910;28;20035;-77
2023/10/13 03:09:17;;;;;;;15.73;8.55;;;16.80;99.90;;;16.27;100.00;100570.03;4135268;28;20034;-76
2023/10/13 03:11:24;;;;;;;14.77;7.95;;;16.90;99.90;;;16.38;100.00;100566.00;4164200;28;20049;-77
2023/10/13 03:13:26;;;;;;;13.95;9.43;;;16.90;99.90;;;16.43;100.00;100564.38;4164280;28;20029;-77
2023/10/13 03:15:30;;;;;;;15.50;9.52;;;17.00;99.90;;;16.45;100.00;100566.84;4151353;28;20036;-76
2023/10/13 03:17:34;;;;;;;13.63;8.85;;;17.10;99.90;;;16.45;100.00;100559.69;4160889;28;20013;-76
2023/10/13 03:19:39;;;;;;;14.57;8.63;;;17.00;99.90;;;16.47;100.00;100557.66;4162489;28;20033;-76
2023/10/13 03:21:44;;;;;;;12.52;8.00;;;17.10;99.90;;;16.48;100.00;100556.63;4161158;28;20084;-77
2023/10/13 03:23:46;;;;;;;14.27;8.32;;;17.10;99.90;;;16.44;100.00;100554.56;4151099;28;20524;-76
2023/10/13 03:25:49;;;;;;;13.30;7.75;;;17.10;99.90;;;16.46;100.00;100548.00;4135186;28;20034;-76
2023/10/13 03:29:56;;;;;;;19.10;9.90;;;17.10;99.90;;;16.49;100.00;100552.09;4135324;28;20081;-76
2023/10/13 03:32:06;;;;;;;13.70;8.55;;;17.10;99.90;;;16.45;100.00;100546.38;4152496;28;20085;-77
2023/10/13 03:34:12;;;;;;;12.93;8.90;;;17.10;99.90;;;16.46;100.00;100537.34;4136422;28;20068;-76
2023/10/13 03:36:56;;;;;;;12.02;8.80;;;17.10;99.90;;;16.43;100.00;100535.09;4135641;28;20026;-76
2023/10/13 03:38:36;;;;;;;13.93;8.77;;;17.00;99.90;;;16.41;100.00;100529.16;4152073;28;20035;-76
2023/10/13 03:40:39;;;;;;;11.80;8.50;;;17.10;99.90;;;16.42;100.00;100514.81;4135016;28;20034;-77
2023/10/13 03:42:40;;;;;;;12.07;8.93;;;17.00;99.90;;;16.49;100.00;100515.66;4135449;28;20018;-77
2023/10/13 03:44:45;;;;;;;13.00;8.80;;;17.10;99.90;;;16.59;100.00;100502.81;4152445;28;20496;-76
2023/10/13 03:46:49;;;;;;;14.18;9.73;;;17.20;99.90;;;16.69;100.00;100499.78;4163658;28;20029;-76
2023/10/13 03:49:01;;;;;;;12.13;8.98;;;17.20;99.90;;;16.81;100.00;100508.00;4152911;28;20029;-76
2023/10/13 03:51:14;;;;;;;10.27;8.02;;;17.30;99.90;;;16.85;100.00;100510.03;4152396;28;20038;-77
2023/10/13 03:53:16;;;;;;;17.53;8.87;;;17.40;99.90;;;16.92;100.00;100508.22;4151962;28;20084;-77
2023/10/13 03:55:17;;;;;;;13.45;8.25;;;17.50;99.90;;;17.01;100.00;100501.66;4134897;28;20879;-76
2023/10/13 03:57:18;;;;;;;14.88;9.77;;;17.60;99.90;;;17.09;100.00;100500.63;4152285;28;20029;-77
2023/10/13 03:59:19;;;;;;;15.82;8.23;;;17.70;99.90;;;17.15;100.00;100502.50;4134716;28;20018;-77
2023/10/13 04:01:31;;;;;;;14.93;8.88;;;17.70;99.90;;;17.21;100.00;100504.34;4152075;28;20018;-77
2023/10/13 04:03:36;;;;;;;12.25;8.63;;;17.80;99.90;;;17.22;100.00;100484.66;4152321;28;20472;-77
2023/10/13 04:05:46;;;;;;;15.27;9.30;;;17.80;99.90;;;17.29;100.00;100490.00;4138204;28;20028;-76
2023/10/13 04:17:28;;;;;;;12.88;8.48;;;18.10;99.90;;;17.59;100.00;100476.03;4127077;28;20037;-77
2023/10/13 04:19:29;;;;;;;11.75;8.32;;;18.20;99.90;;;17.64;100.00;100478.09;4151270;28;20049;-77
2023/10/13 04:22:14;;;;;;;12.95;7.63;;;18.20;99.90;;;17.63;100.00;100471.09;4137884;28;20022;-77
2023/10/13 04:26:35;;;;;;;10.80;7.45;;;18.20;99.90;;;17.54;100.00;100475.84;4155264;28;20029;-77
2023/10/13 04:28:50;;;;;;;11.77;7.72;;;18.20;99.90;;;17.49;100.00;100478.28;4155162;28;20045;-76
2023/10/13 04:33:35;;;;;;;12.00;8.68;;;18.00;99.90;;;17.37;100.00;100477.28;4138262;28;20506;-76
2023/10/13 04:35:35;;;;;;;11.13;7.68;;;18.00;99.90;;;17.28;100.00;100467.84;4154937;28;20029;-77
2023/10/13 04:40:09;;;;;;;10.70;7.45;;;17.90;99.90;;;17.22;100.00;100473.19;4139906;28;20034;-77
2023/10/13 04:42:26;;;;;;;12.38;7.75;;;17.80;99.90;;;17.15;100.00;100467.84;4154837;28;20112;-77
2023/10/13 04:47:41;;;;;;;12.40;8.48;;;17.70;99.90;;;17.08;100.00;100472.38;4164474;28;20030;-76
2023/10/13 04:49:09;;;;;;;10.75;7.47;;;17.70;99.90;;;17.06;100.00;100474.41;4146072;28;20522;-76
2023/10/13 04:53:33;;;;;;;15.80;7.70;;;17.70;99.90;;;17.11;100.00;100463.97;4170866;28;20401;-76
2023/10/13 04:55:59;;;;;;;10.65;6.97;;;17.70;99.90;;;17.16;100.00;100474.81;4169855;28;20022;-76
2023/10/13 04:58:10;;;;;;;13.02;7.50;;;17.80;99.90;;;17.20;100.00;100462.72;4171110;28;20021;-77
2023/10/13 05:05:11;;;;;;;10.13;6.93;;;17.90;99.90;;;17.32;100.00;100463.75;4156086;28;20033;-77
2023/10/13 05:44:33;;;;;;;15.30;7.35;;;18.50;99.90;;;18.03;100.00;100477.16;4155495;28;20057;-76
2023/10/13 05:48:54;;;;;;;13.13;8.10;;;18.60;99.90;;;18.04;100.00;100470.81;4152964;28;20457;-76
2023/10/13 06:30:40;;;;;;;12.88;7.45;;;18.90;99.90;;;18.36;100.00;100453.00;4169595;28;20095;-76
2023/10/13 06:32:41;;;;;;;12.27;7.70;;;18.90;99.90;;;18.40;100.00;100444.31;4150890;28;20026;-76
2023/10/13 06:34:45;;;;;;;17.05;6.93;;;19.00;99.90;;;18.47;100.00;100453.13;4158796;28;20049;-78
2023/10/13 06:36:47;;;;;;;12.43;7.47;;;19.00;99.90;;;18.50;100.00;100452.75;4136057;28;20532;-76
2023/10/13 06:39:34;;;;;;;13.65;7.45;;;19.10;99.90;;;18.54;100.00;100456.63;4151054;28;20029;-76
2023/10/13 06:41:30;;;;;;;18.75;7.60;;;19.10;99.90;;;18.60;100.00;100463.78;4169043;28;20040;-77
2023/10/13 06:43:43;;;;;;;17.33;8.10;;;19.10;99.90;;;18.61;100.00;100452.03;4152542;28;20057;-76
2023/10/13 06:45:50;;;;;;;11.95;7.47;;;19.10;99.90;;;18.64;100.00;100456.97;4140315;28;20036;-76
2023/10/13 06:47:53;;;;;;;12.88;7.65;;;19.20;99.90;;;18.68;100.00;100455.50;4161043;28;20017;-77
2023/10/13 06:49:56;;;;;;;11.95;7.13;;;19.20;99.90;;;18.66;100.00;100446.91;4152681;28;20037;-77
2023/10/13 06:52:00;;;;;;;13.13;7.53;;;19.20;99.90;;;18.68;100.00;100460.84;4135814;28;20022;-77
2023/10/13 06:54:02;;;;;;;;;;;19.20;99.90;;;18.65;100.00;100458.59;4153229;28;20088;-77
2023/10/13 06:56:07;;;;;;;20.88;7.53;;;19.30;99.90;;;18.72;100.00;100469.25;4153569;28;19916;-77
2023/10/13 06:58:13;;;;;;;13.05;6.47;;;19.30;99.90;;;18.74;100.00;100460.00;4167696;28;20040;-77
2023/10/13 07:00:28;;;;;;;16.20;6.80;;;19.30;99.90;;;18.81;100.00;100469.81;4153105;28;20041;-76
2023/10/13 07:02:33;;;;;;;17.02;7.07;;;19.30;99.90;;;18.92;100.00;100472.59;4160992;28;20033;-77
2023/10/13 07:04:34;;;;;;;11.82;6.35;;;19.40;99.90;;;18.98;100.00;100469.06;4152229;28;20068;-77
2023/10/13 07:06:35;;;;;;;13.75;6.88;;;19.50;99.90;;;19.03;100.00;100469.22;4152266;28;20025;-76
2023/10/13 07:08:37;;;;;;;12.85;7.50;;;19.50;99.90;;;19.05;100.00;100463.69;4149774;28;20108;-77
2023/10/13 07:13:00;;;;;;;12.05;6.10;;;19.60;99.90;;;19.14;100.00;100476.56;4168114;28;20576;-76
2023/10/13 07:17:23;;;;;;;10.43;6.38;;;19.70;99.90;;;19.35;100.00;100483.38;4141425;28;20026;-76
2023/10/13 07:19:27;;;;;;;11.77;6.18;;;19.90;99.90;;;19.46;100.00;100477.34;4163615;28;20037;-77
2023/10/13 07:21:31;;;;;;;21.63;6.75;;;19.90;99.90;;;19.60;100.00;100475.34;4152553;28;20025;-76
2023/10/13 07:23:35;;;;;;;15.70;6.28;;;20.00;99.90;;;19.68;100.00;100469.72;4134925;28;20031;-78
2023/10/13 07:25:37;;;;;;;15.82;6.40;;;20.10;99.90;;;19.75;100.00;100471.28;4152543;28;20527;-79
2023/10/13 07:27:38;;;;;;;17.75;6.90;;;20.20;99.90;;;19.73;100.00;100481.38;4141640;28;20095;-80
2023/10/13 07:29:41;;;;;;;14.32;6.32;;;20.30;99.90;;;19.72;100.00;100481.59;4168893;28;20501;-78
2023/10/13 07:31:44;;;;;;;;;;;20.30;99.90;;;19.64;100.00;100465.84;4152122;28;20133;-79
2023/10/13 07:33:45;;;;;;;16.17;6.15;;;20.30;99.90;;;19.65;100.00;100460.25;4151208;28;20058;-79
2023/10/13 07:35:50;;;;;;;15.55;6.00;;;20.30;99.90;;;19.75;100.00;100463.25;4168623;28;20033;-79
2023/10/13 07:37:53;;;;;;;10.75;5.20;;;20.30;99.90;;;19.83;100.00;100452.22;4151401;28;20032;-83
2023/10/13 07:39:57;;;;;;;10.85;5.47;;;20.40;99.90;;;19.85;100.00;100452.84;4167382;28;20023;-80
2023/10/13 07:42:05;;;;;;;17.30;5.97;;;20.40;99.90;;;19.95;100.00;100459.53;4151502;28;20030;-78
2023/10/13 07:44:06;;;;;;;16.50;5.82;;;20.40;99.90;;;20.00;100.00;100462.34;4168733;28;20056;-78
2023/10/13 07:46:09;;;;;;;16.58;5.40;;;20.50;99.90;;;20.10;100.00;100459.97;4151342;28;20030;-78
2023/10/13 07:48:16;;;;;;;15.52;6.03;;;20.60;99.90;;;20.32;100.00;100445.06;4168697;28;20026;-78
2023/10/13 07:50:25;;;;;;;15.05;6.10;;;20.70;99.90;;;20.39;100.00;100467.25;4153090;28;20041;-77
2023/10/13 07:52:36;;;;;;;21.10;5.10;;;20.80;99.90;;;20.51;100.00;100468.13;4150685;28;20037;-78
2023/10/13 07:54:39;;;;;;;15.73;5.85;;;20.90;99.90;;;20.74;100.00;100464.69;4152332;28;20025;-78
2023/10/13 07:56:40;;;;;;;;;;;21.10;99.90;;;20.74;100.00;100467.34;4152762;28;20018;-78
2023/10/13 07:58:52;;;;;;;20.25;6.20;;;21.10;99.90;;;20.75;100.00;100474.38;4162593;28;19909;-77
2023/10/13 08:01:17;;;;;;;16.48;5.75;;;21.20;99.90;;;20.74;100.00;100481.59;4152315;28;20116;-76
2023/10/13 08:05:39;;;;;;;18.42;6.70;;;21.30;99.90;;;20.82;100.00;100478.56;4134944;28;20034;-76
2023/10/13 08:07:41;;;;;;;22.73;6.85;;;21.30;99.90;;;20.92;100.00;100478.03;4158481;28;20049;-76
2023/10/13 08:09:43;;;;;;;19.90;6.72;;;21.40;99.90;;;20.90;100.00;100478.25;4153440;28;20025;-76
2023/10/13 08:11:44;;;;;;;17.65;5.60;;;21.40;99.90;;;20.98;100.00;100482.47;4159406;28;20058;-77
2023/10/13 08:13:53;;;;;;;21.83;6.65;;;21.40;99.90;;;20.99;100.00;100468.03;4159361;28;20041;-76
2023/10/13 08:15:54;;;;;;;21.38;6.55;;;21.50;99.90;;;20.98;100.00;100483.28;4168825;28;20026;-76
2023/10/13 08:17:58;;;;;;;19.05;5.82;;;21.50;99.90;;;20.98;100.00;100485.16;4166502;28;20428;-76
2023/10/13 08:19:59;;;;;;;;;;;21.50;99.90;;;20.89;100.00;100476.63;4161050;28;20484;-79
2023/10/13 08:24:29;;;;;;;22.15;6.75;;;21.40;99.90;;;20.85;100.00;100483.47;4152033;28;20026;-76
2023/10/13 08:26:29;;;;;;;21.50;6.63;;;21.40;99.90;;;20.83;100.00;100476.72;4151867;28;20149;-76
2023/10/13 08:30:52;;;;;;;18.83;6.78;;;21.40;99.90;;;20.80;100.00;100469.94;4160774;28;20021;-76
2023/10/13 08:32:59;;;;;;;25.10;6.50;;;21.40;99.90;;;20.85;100.00;100480.78;4151649;28;20038;-76
2023/10/13 08:37:19;;;;;;;23.80;6.28;;;21.40;99.90;;;20.86;100.00;100484.28;4134583;28;20082;-77
2023/10/13 08:42:11;;;;;;;18.67;6.47;;;21.40;99.90;;;20.87;100.00;100480.56;4138436;28;20049;-76
2023/10/13 08:44:31;;;;;;;26.02;7.40;;;21.40;99.90;;;20.90;100.00;100489.00;4142561;28;20032;-76
2023/10/13 08:47:03;;;;;;;24.20;7.32;;;21.40;99.90;;;20.95;100.00;100480.25;4153452;28;20034;-76
2023/10/13 08:49:18;;;;;;;16.33;6.15;;;21.40;99.90;;;20.89;100.00;100484.66;4154388;28;20072;-76
2023/10/13 08:51:43;;;;;;;18.20;6.85;;;21.40;99.90;;;20.86;100.00;100484.28;4168403;28;20030;-76
2023/10/13 08:53:45;;;;;;;26.77;7.13;;;21.40;99.90;;;20.85;100.00;100477.28;4153503;28;20065;-76
2023/10/13 08:56:02;;;;;;;26.20;7.63;;;21.40;99.90;;;20.81;100.00;100500.25;4150984;28;20536;-77
2023/10/13 08:58:13;;;;;;;24.45;6.93;;;21.40;99.90;;;20.75;100.00;100498.50;4155996;28;20060;-76
2023/10/13 09:00:32;;;;;;;29.05;7.50;;;21.30;99.90;;;20.72;100.00;100502.44;4171025;28;20044;-76
2023/10/13 09:07:47;;;;;;;19.75;5.85;;;21.30;99.90;;;20.72;100.00;100490.91;4124071;28;20049;-77
2023/10/13 09:12:18;;;;;;;24.75;6.32;;;21.20;99.90;;;20.65;100.00;100496.34;4170828;28;20068;-76
2023/10/13 09:14:32;;;;;;;25.83;6.97;;;21.20;99.90;;;20.68;100.00;100495.91;4158808;28;20096;-76
2023/10/13 09:18:46;;;;;;;19.13;6.55;;;21.20;99.90;;;20.67;100.00;100506.88;4170426;28;20028;-76
2023/10/13 09:21:02;;;;;;;21.42;6.97;;;21.20;99.90;;;20.66;100.00;100511.41;4141911;28;20105;-76
2023/10/13 09:23:28;;;;;;;27.40;7.38;;;21.20;99.90;;;20.68;100.00;100511.97;4154288;28;20447;-76
2023/10/13 09:26:09;;;;;;;22.02;6.95;;;21.20;99.90;;;20.64;100.00;100505.44;4159900;28;20025;-76
2023/10/13 09:28:15;;;;;;;22.40;6.70;;;21.20;99.90;;;20.61;100.00;100519.28;4155486;28;20416;-77
2023/10/13 09:30:20;;;;;;;31.75;8.40;;;21.20;99.90;;;20.53;100.00;100524.97;4152469;28;20409;-77
2023/10/13 09:32:21;;;;;;;23.58;6.75;;;21.20;99.90;;;20.49;100.00;100517.63;4168966;28;20030;-76
2023/10/13 09:34:23;;;;;;;25.27;7.10;;;21.10;99.90;;;20.49;100.00;100513.06;4153767;28;20033;-76
2023/10/13 09:36:25;;;;;;;22.23;6.60;;;21.10;99.90;;;20.49;100.00;100498.88;4157586;28;20022;-76
2023/10/13 09:38:28;;;;;;;25.55;6.70;;;21.10;99.90;;;20.47;100.00;100504.44;4153619;28;20030;-76
2023/10/13 09:42:34;;;;;;;23.38;7.20;;;21.00;99.90;;;20.42;100.00;100510.47;4153852;28;20029;-76
2023/10/13 09:44:40;;;;;;;24.65;7.72;;;21.00;99.90;;;20.43;100.00;100497.88;4136862;28;20050;-76
2023/10/13 09:46:41;;;;;;;29.80;7.47;;;21.00;99.90;;;20.39;100.00;100502.06;4155299;28;20031;-77
2023/10/13 09:48:47;;;;;;;24.60;7.07;;;21.00;99.90;;;20.25;100.00;100492.53;4153889;28;20022;-76
2023/10/13 09:50:49;;;;;;;21.50;6.65;;;20.90;99.90;;;20.26;100.00;100495.00;4136813;28;20083;-76
2023/10/13 09:52:52;;;;;;;30.60;8.05;;;20.90;99.90;;;20.26;100.00;100476.25;4136314;28;20039;-76
2023/10/13 09:55:29;;;;;;;23.83;6.68;;;20.90;99.90;;;20.32;100.00;100474.53;4136864;28;20490;-77
2023/10/13 09:57:40;;;;;;;19.67;5.68;;;20.90;99.90;;;20.33;100.00;100485.03;4153223;28;20025;-76
2023/10/13 10:00:06;;;;;;;23.40;7.03;;;20.90;99.90;;;20.33;100.00;100481.53;4148848;28;20022;-77
2023/10/13 10:02:09;;;;;;;17.67;6.50;;;20.90;99.90;;;20.36;100.00;100481.09;4153595;28;20036;-76
2023/10/13 10:04:18;;;;;;;26.65;8.68;;;20.90;99.90;;;20.38;100.00;100484.34;4170374;28;20025;-76
2023/10/13 10:06:28;;;;;;;22.40;7.25;;;21.00;99.90;;;20.37;100.00;100472.81;4152954;28;20026;-76
2023/10/13 10:08:33;;;;;;;29.00;8.43;;;21.00;99.90;;;20.47;100.00;100472.28;4136537;28;20026;-76
2023/10/13 10:11:07;;;;;;;26.95;8.00;;;21.00;99.90;;;20.53;100.00;100457.97;4136120;28;20026;-76
2023/10/13 10:13:23;;;;;;;20.92;7.32;;;21.10;99.90;;;20.58;100.00;100458.09;4118220;28;20038;-76
2023/10/13 10:15:35;;;;;;;21.90;6.72;;;21.20;99.90;;;20.72;100.00;100459.56;4151792;28;20585;-75
2023/10/13 10:17:42;;;;;;;27.27;6.85;;;21.20;99.90;;;20.70;100.00;100450.91;4157171;28;20040;-77
2023/10/13 10:19:56;;;;;;;18.48;6.15;;;21.30;99.90;;;20.77;100.00;100448.13;4147256;28;20022;-76
2023/10/13 10:22:53;;;;;;;20.80;7.15;;;21.30;99.90;;;20.80;100.00;100448.50;4169321;28;20029;-75
2023/10/13 10:24:30;;;;;;;20.13;6.85;;;21.40;99.90;;;20.92;100.00;100438.63;4151022;28;20504;-80
2023/10/13 10:26:31;;;;;;;20.50;7.63;;;21.50;99.90;;;21.12;100.00;100450.91;4151845;28;20069;-79
2023/10/13 10:28:41;;;;;;;23.52;6.18;;;21.60;99.90;;;21.26;100.00;100434.38;4169278;28;20045;-75
2023/10/13 10:30:43;;;;;;;19.23;7.38;;;21.70;99.90;;;21.34;100.00;100425.97;4152488;28;20026;-78
2023/10/13 10:32:48;;;;;;;21.42;7.47;;;21.80;99.90;;;21.35;100.00;100424.09;4151618;28;20121;-78
2023/10/13 10:34:50;;;;;;;24.83;7.90;;;21.80;99.90;;;21.31;100.00;100412.19;4169966;28;20038;-78
2023/10/13 10:36:58;;;;;;;19.35;6.85;;;21.70;99.90;;;21.22;100.00;100413.59;4141461;28;20117;-75
2023/10/13 10:38:59;;;;;;;20.27;6.85;;;21.70;99.90;;;21.18;100.00;100409.75;4152822;28;20057;-75
2023/10/13 10:41:05;;;;;;;25.95;6.65;;;21.70;99.90;;;21.13;100.00;100418.50;4153330;28;20032;-75
2023/10/13 10:43:09;;;;;;;17.10;6.18;;;21.70;99.90;;;21.19;100.00;100422.09;4142499;28;20112;-75
2023/10/13 10:45:11;;;;;;;;;;;21.70;99.90;;;21.23;100.00;100425.97;4156751;28;20104;-74
2023/10/13 10:47:31;;;;;;;18.05;6.60;;;21.80;99.90;;;21.24;100.00;100420.34;4148061;28;19956;-75
2023/10/13 10:49:38;;;;;;;23.30;7.47;;;21.80;99.90;;;21.21;100.00;100412.78;4152424;28;20037;-75
2023/10/13 10:51:46;;;;;;;21.75;6.32;;;21.80;99.90;;;21.20;100.00;100408.47;4135191;28;20042;-76
2023/10/13 10:53:52;;;;;;;22.42;6.20;;;21.70;99.90;;;21.21;100.00;100406.59;4137811;28;20468;-76
2023/10/13 10:55:53;;;;;;;28.80;8.13;;;21.70;99.90;;;21.26;100.00;100401.34;4168915;28;20097;-76
2023/10/13 10:58:23;;;;;;;25.25;7.00;;;21.80;99.90;;;21.33;100.00;100404.72;4158500;28;20092;-75
2023/10/13 11:00:26;;;;;;;20.30;6.38;;;21.90;99.90;;;21.30;100.00;100414.06;4152581;28;20064;-75